createdAt,value
2022-12-07T00:01:45.238Z,86.60
2022-12-07T00:04:16.069Z,86.60
2022-12-07T00:06:46.187Z,86.60
2022-12-07T00:09:18.211Z,86.60
2022-12-07T00:11:50.240Z,86.50
2022-12-07T00:14:18.307Z,86.60
2022-12-07T00:16:46.637Z,86.40
2022-12-07T00:19:15.027Z,86.40
2022-12-07T00:21:42.494Z,86.30
2022-12-07T00:24:11.279Z,86.40
2022-12-07T00:26:41.890Z,86.50
2022-12-07T00:29:20.646Z,86.60
2022-12-07T00:31:48.476Z,86.60
2022-12-07T00:34:20.988Z,86.70
2022-12-07T00:36:49.050Z,86.70
2022-12-07T00:39:17.173Z,86.80
2022-12-07T00:41:44.491Z,86.80
2022-12-07T00:44:12.363Z,86.90
2022-12-07T00:46:39.633Z,86.80
2022-12-07T00:49:07.922Z,86.80
2022-12-07T00:51:35.569Z,86.80
2022-12-07T00:54:03.928Z,87.00
2022-12-07T00:56:31.229Z,87.10
2022-12-07T00:59:04.584Z,87.00
2022-12-07T01:01:40.503Z,87.10
2022-12-07T01:04:08.008Z,87.20
2022-12-07T01:06:37.598Z,87.10
2022-12-07T01:09:05.895Z,87.20
2022-12-07T01:11:34.119Z,87.30
2022-12-07T01:14:02.245Z,87.30
2022-12-07T01:16:31.791Z,87.50
2022-12-07T01:19:01.430Z,87.60
2022-12-07T01:21:36.604Z,87.60
2022-12-07T01:24:05.685Z,87.80
2022-12-07T01:26:33.249Z,87.80
2022-12-07T01:29:01.907Z,87.60
2022-12-07T01:31:30.935Z,87.50
2022-12-07T01:34:01.078Z,87.30
2022-12-07T01:36:33.709Z,87.10
2022-12-07T01:39:08.871Z,87.00
2022-12-07T01:41:41.352Z,87.00
2022-12-07T01:44:31.072Z,86.90
2022-12-07T01:47:23.433Z,86.70
2022-12-07T01:49:50.773Z,86.60
2022-12-07T01:52:23.381Z,86.40
2022-12-07T01:54:55.684Z,86.50
2022-12-07T01:57:23.667Z,86.50
2022-12-07T01:59:53.915Z,86.40
2022-12-07T02:02:37.097Z,86.60
2022-12-07T02:05:06.621Z,86.10
2022-12-07T02:07:37.558Z,86.30
2022-12-07T02:10:33.620Z,85.60
2022-12-07T02:13:09.518Z,85.60
2022-12-07T02:15:42.895Z,85.50
2022-12-07T02:18:29.747Z,85.80
2022-12-07T02:21:15.593Z,85.60
2022-12-07T02:24:10.708Z,85.70
2022-12-07T02:26:52.161Z,85.60
2022-12-07T02:29:28.805Z,85.70
2022-12-07T02:32:11.927Z,85.80
2022-12-07T02:34:56.919Z,86.80
2022-12-07T02:37:38.992Z,86.30
2022-12-07T02:40:27.958Z,86.30
2022-12-07T02:43:09.249Z,86.10
2022-12-07T02:45:40.757Z,85.70
2022-12-07T02:48:18.047Z,85.90
2022-12-07T02:50:47.220Z,86.10
2022-12-07T02:53:38.291Z,86.00
2022-12-07T02:56:37.289Z,86.20
2022-12-07T02:59:16.310Z,86.30
2022-12-07T03:02:24.102Z,86.50
2022-12-07T03:05:11.435Z,86.60
2022-12-07T03:07:57.565Z,86.70
2022-12-07T03:10:46.753Z,86.70
2022-12-07T03:13:30.868Z,86.70
2022-12-07T03:16:09.253Z,86.70
2022-12-07T03:18:45.994Z,86.70
2022-12-07T03:21:17.997Z,86.70
2022-12-07T03:23:49.706Z,87.50
2022-12-07T03:26:19.759Z,86.90
2022-12-07T03:28:52.586Z,86.90
2022-12-07T03:31:41.588Z,87.00
2022-12-07T03:34:32.909Z,87.00
2022-12-07T03:37:12.886Z,87.70
2022-12-07T03:39:51.378Z,87.00
2022-12-07T03:42:20.088Z,86.90
2022-12-07T03:44:47.666Z,87.00
2022-12-07T03:47:31.375Z,87.00
2022-12-07T03:50:42.548Z,86.60
2022-12-07T03:53:35.963Z,86.80
2022-12-07T03:56:04.302Z,86.90
2022-12-07T03:58:34.655Z,86.60
2022-12-07T04:01:02.018Z,86.30
2022-12-07T04:03:29.937Z,86.40
2022-12-07T04:05:57.285Z,86.60
2022-12-07T04:08:24.542Z,86.70
2022-12-07T04:10:51.943Z,86.70
2022-12-07T04:13:20.520Z,86.80
2022-12-07T04:15:48.085Z,86.80
2022-12-07T04:18:16.573Z,86.80
2022-12-07T04:20:43.796Z,86.60
2022-12-07T04:23:12.519Z,86.50
2022-12-07T04:25:40.018Z,86.20
2022-12-07T04:28:07.215Z,85.80
2022-12-07T04:30:34.572Z,86.30
2022-12-07T04:33:01.727Z,86.20
2022-12-07T04:35:28.973Z,86.30
2022-12-07T04:37:56.237Z,86.10
2022-12-07T04:40:24.713Z,86.30
2022-12-07T04:42:51.922Z,86.50
2022-12-07T04:45:19.179Z,86.40
2022-12-07T04:47:46.582Z,86.30
2022-12-07T04:50:14.506Z,86.40
2022-12-07T04:52:41.747Z,86.30
2022-12-07T04:55:09.359Z,86.40
2022-12-07T04:57:36.621Z,86.20
2022-12-07T05:00:06.810Z,86.30
2022-12-07T05:02:34.186Z,86.40
2022-12-07T05:05:01.395Z,86.50
2022-12-07T05:07:28.540Z,86.50
2022-12-07T05:09:55.744Z,86.50
2022-12-07T05:12:23.211Z,86.50
2022-12-07T05:14:51.479Z,86.50
2022-12-07T05:17:18.683Z,86.50
2022-12-07T05:19:45.939Z,86.40
2022-12-07T05:22:14.528Z,86.40
2022-12-07T05:24:41.788Z,86.30
2022-12-07T05:27:09.070Z,86.10
2022-12-07T05:29:36.525Z,86.30
2022-12-07T05:32:05.040Z,86.40
2022-12-07T05:34:32.327Z,86.50
2022-12-07T05:36:59.854Z,86.70
2022-12-07T05:39:26.986Z,86.60
2022-12-07T05:42:13.227Z,86.70
2022-12-07T05:44:42.882Z,86.70
2022-12-07T05:47:11.080Z,86.70
2022-12-07T05:49:40.207Z,86.70
2022-12-07T05:52:07.877Z,86.70
2022-12-07T05:54:35.073Z,86.80
2022-12-07T05:57:21.077Z,86.80
2022-12-07T05:59:48.938Z,86.90
2022-12-07T06:02:17.443Z,86.80
2022-12-07T06:04:48.011Z,86.80
2022-12-07T06:07:17.859Z,86.80
2022-12-07T06:09:45.074Z,86.80
2022-12-07T06:12:41.048Z,86.80
2022-12-07T06:15:08.816Z,86.70
2022-12-07T06:17:36.332Z,86.40
2022-12-07T06:20:05.979Z,86.40
2022-12-07T06:22:33.340Z,85.70
2022-12-07T06:25:05.726Z,86.20
2022-12-07T06:27:36.609Z,86.40
2022-12-07T06:30:09.654Z,86.60
2022-12-07T06:32:39.001Z,86.70
2022-12-07T06:35:07.824Z,86.60
2022-12-07T06:37:35.382Z,86.80
2022-12-07T06:40:03.107Z,86.90
2022-12-07T06:42:30.613Z,86.70
2022-12-07T06:44:58.656Z,86.60
2022-12-07T06:47:40.011Z,86.40
2022-12-07T06:50:08.870Z,86.50
2022-12-07T06:52:39.812Z,86.70
2022-12-07T06:55:08.999Z,86.50
2022-12-07T06:57:43.702Z,86.40
2022-12-07T07:00:18.416Z,86.10
2022-12-07T07:02:51.739Z,86.40
2022-12-07T07:05:25.233Z,86.50
2022-12-07T07:10:42.697Z,85.80
2022-12-07T07:13:15.062Z,85.60
2022-12-07T07:15:43.462Z,86.00
2022-12-07T07:18:12.224Z,86.20
2022-12-07T07:20:39.880Z,86.00
2022-12-07T07:23:08.349Z,86.10
2022-12-07T07:25:35.925Z,85.70
2022-12-07T07:28:03.707Z,86.00
2022-12-07T07:30:31.399Z,85.80
2022-12-07T07:33:00.353Z,86.00
2022-12-07T07:35:31.982Z,86.10
2022-12-07T07:38:01.931Z,86.10
2022-12-07T07:40:31.015Z,85.60
2022-12-07T07:42:59.423Z,86.30
2022-12-07T07:45:31.378Z,86.10
2022-12-07T07:47:58.829Z,86.30
2022-12-07T07:50:26.696Z,85.90
2022-12-07T07:52:56.412Z,86.10
2022-12-07T07:55:23.921Z,86.30
2022-12-07T07:57:54.915Z,86.30
2022-12-07T08:00:24.472Z,86.30
2022-12-07T08:02:51.759Z,86.20
2022-12-07T08:05:19.405Z,86.20
2022-12-07T08:07:46.850Z,86.10
2022-12-07T08:10:15.311Z,85.80
2022-12-07T08:13:02.466Z,86.10
2022-12-07T08:15:31.741Z,86.00
2022-12-07T08:18:00.209Z,86.10
2022-12-07T08:20:27.766Z,85.80
2022-12-07T08:22:55.230Z,86.30
2022-12-07T08:25:23.713Z,86.30
2022-12-07T08:27:52.903Z,85.30
2022-12-07T08:30:21.702Z,85.50
2022-12-07T08:32:49.932Z,85.80
2022-12-07T08:35:17.414Z,86.00
2022-12-07T08:37:47.150Z,86.10
2022-12-07T08:40:20.012Z,86.00
2022-12-07T08:42:51.663Z,85.80
2022-12-07T08:45:26.947Z,86.00
2022-12-07T08:48:10.170Z,86.10
2022-12-07T08:50:41.091Z,86.10
2022-12-07T08:53:11.931Z,85.90
2022-12-07T08:55:39.553Z,85.70
2022-12-07T08:58:07.363Z,85.80
2022-12-07T09:00:35.077Z,85.50
2022-12-07T09:03:04.623Z,85.50
2022-12-07T09:05:33.839Z,85.60
2022-12-07T09:08:16.511Z,84.90
2022-12-07T09:10:46.012Z,85.30
2022-12-07T09:13:14.094Z,85.40
2022-12-07T09:15:41.729Z,85.30
2022-12-07T09:18:12.610Z,85.20
2022-12-07T09:20:39.879Z,84.40
2022-12-07T09:23:08.444Z,84.40
2022-12-07T09:25:35.997Z,84.40
2022-12-07T09:28:03.705Z,84.40
2022-12-07T09:30:31.343Z,84.60
2022-12-07T09:33:04.629Z,82.50
2022-12-07T09:35:31.995Z,83.50
2022-12-07T09:38:00.535Z,84.00
2022-12-07T09:40:29.367Z,84.30
2022-12-07T09:42:57.235Z,83.50
2022-12-07T09:45:36.871Z,84.00
2022-12-07T09:48:06.214Z,83.40
2022-12-07T09:50:33.505Z,83.60
2022-12-07T09:53:14.858Z,83.30
2022-12-07T09:55:44.287Z,83.60
2022-12-07T09:58:22.202Z,83.50
2022-12-07T10:00:57.805Z,83.30
2022-12-07T10:03:26.696Z,85.00
2022-12-07T10:05:54.492Z,84.00
2022-12-07T10:08:22.375Z,80.20
2022-12-07T10:10:59.854Z,79.10
2022-12-07T10:13:41.876Z,75.20
2022-12-07T10:16:41.919Z,72.60
2022-12-07T10:19:26.800Z,72.20
2022-12-07T10:22:10.379Z,69.00
2022-12-07T10:24:40.593Z,68.00
2022-12-07T10:27:30.894Z,63.60
2022-12-07T10:30:00.635Z,63.70
2022-12-07T10:32:34.126Z,62.70
2022-12-07T10:35:23.437Z,60.30
2022-12-07T10:37:51.974Z,59.20
2022-12-07T10:40:40.865Z,60.60
2022-12-07T10:43:20.057Z,58.20
2022-12-07T10:46:18.596Z,61.50
2022-12-07T10:48:56.638Z,60.00
2022-12-07T10:52:02.883Z,60.00
2022-12-07T10:54:49.926Z,61.10
2022-12-07T10:57:45.585Z,61.50
2022-12-07T11:00:40.111Z,61.70
2022-12-07T11:03:20.714Z,60.30
2022-12-07T11:06:03.572Z,59.70
2022-12-07T11:09:00.414Z,59.80
2022-12-07T11:11:46.258Z,59.30
2022-12-07T11:14:32.348Z,58.60
2022-12-07T11:17:27.437Z,60.20
2022-12-07T11:20:13.867Z,59.70
2022-12-07T11:22:48.264Z,59.80
2022-12-07T11:25:40.867Z,57.90
2022-12-07T11:28:38.034Z,58.00
2022-12-07T11:31:38.303Z,58.80
2022-12-07T11:34:29.156Z,57.50
2022-12-07T11:36:58.593Z,57.10
2022-12-07T11:39:37.885Z,57.50
2022-12-07T11:42:36.619Z,56.70
2022-12-07T11:45:13.193Z,55.80
2022-12-07T11:47:49.700Z,54.90
2022-12-07T11:50:46.387Z,56.10
2022-12-07T11:53:45.973Z,55.90
2022-12-07T11:56:20.733Z,55.90
2022-12-07T11:59:00.235Z,57.40
2022-12-07T12:02:05.405Z,57.10
2022-12-07T12:05:07.644Z,56.00
2022-12-07T12:10:47.050Z,57.00
2022-12-07T12:17:03.389Z,56.00
2022-12-07T12:19:47.066Z,56.30
2022-12-07T12:22:22.199Z,56.20
2022-12-07T12:24:55.097Z,56.80
2022-12-07T12:27:44.159Z,57.50
2022-12-07T12:30:29.697Z,56.80
2022-12-07T12:33:04.278Z,57.90
2022-12-07T12:35:38.404Z,57.60
2022-12-07T12:38:37.071Z,58.40
2022-12-07T12:41:04.651Z,58.20
2022-12-07T12:44:05.444Z,58.30
2022-12-07T12:46:34.988Z,58.50
2022-12-07T12:49:41.873Z,57.20
2022-12-07T12:52:32.676Z,57.70
2022-12-07T12:55:22.250Z,58.10
2022-12-07T12:58:21.401Z,58.10
2022-12-07T13:01:12.041Z,58.80
2022-12-07T13:03:39.804Z,58.40
2022-12-07T13:06:26.102Z,58.90
2022-12-07T13:08:59.950Z,55.50
2022-12-07T13:11:48.260Z,55.80
2022-12-07T13:14:42.206Z,56.60
2022-12-07T13:17:49.265Z,56.20
2022-12-07T13:20:44.120Z,55.60
2022-12-07T13:23:15.027Z,55.40
2022-12-07T13:26:21.445Z,56.90
2022-12-07T13:29:13.077Z,56.10
2022-12-07T13:31:48.403Z,57.20
2022-12-07T13:34:38.149Z,57.30
2022-12-07T13:37:38.398Z,57.10
2022-12-07T13:40:31.208Z,56.70
2022-12-07T13:43:15.686Z,56.70
2022-12-07T13:45:51.135Z,57.20
2022-12-07T13:48:42.785Z,57.20
2022-12-07T13:51:22.798Z,57.20
2022-12-07T13:53:57.128Z,56.60
2022-12-07T13:56:36.959Z,57.10
2022-12-07T13:59:06.081Z,57.30
2022-12-07T14:01:34.248Z,57.00
2022-12-07T14:04:42.121Z,57.30
2022-12-07T14:07:29.109Z,57.70
2022-12-07T14:09:59.519Z,57.30
2022-12-07T14:12:32.839Z,57.50
2022-12-07T14:15:02.809Z,57.00
2022-12-07T14:17:32.067Z,57.50
2022-12-07T14:20:45.294Z,57.50
2022-12-07T14:23:27.472Z,57.10
2022-12-07T14:26:14.779Z,58.00
2022-12-07T14:28:45.530Z,58.50
2022-12-07T14:31:30.566Z,58.70
2022-12-07T14:34:01.582Z,58.90
2022-12-07T14:36:30.729Z,58.90
2022-12-07T14:39:02.042Z,59.00
2022-12-07T14:41:51.172Z,59.10
2022-12-07T14:44:28.073Z,59.30
2022-12-07T14:49:50.374Z,59.50
2022-12-07T14:55:28.960Z,59.90
2022-12-07T14:57:56.796Z,60.00
2022-12-07T15:00:27.650Z,60.00
2022-12-07T15:02:55.731Z,60.10
2022-12-07T15:05:25.153Z,60.40
2022-12-07T15:07:53.469Z,60.50
2022-12-07T15:10:34.425Z,60.60
2022-12-07T15:13:22.921Z,60.70
2022-12-07T15:15:53.076Z,60.80
2022-12-07T15:18:27.330Z,61.10
2022-12-07T15:21:02.083Z,61.00
2022-12-07T15:23:35.456Z,61.30
2022-12-07T15:26:04.536Z,61.30
2022-12-07T15:28:32.040Z,61.50
2022-12-07T15:31:10.560Z,61.60
2022-12-07T15:33:46.305Z,62.00
2022-12-07T15:36:23.408Z,61.90
2022-12-07T15:39:13.014Z,62.20
2022-12-07T15:41:38.276Z,62.40
2022-12-07T15:44:29.290Z,63.00
2022-12-07T15:46:59.157Z,62.90
2022-12-07T15:49:27.401Z,62.90
2022-12-07T15:51:54.875Z,63.00
2022-12-07T15:54:25.293Z,62.90
2022-12-07T15:56:53.031Z,63.00
2022-12-07T15:59:20.689Z,63.20
2022-12-07T16:01:48.275Z,63.00
2022-12-07T16:04:15.633Z,63.20
2022-12-07T16:06:49.158Z,63.20
2022-12-07T16:09:19.376Z,63.30
2022-12-07T16:11:46.923Z,63.20
2022-12-07T16:17:14.093Z,63.40
2022-12-07T16:19:42.893Z,63.60
2022-12-07T16:22:20.373Z,63.60
2022-12-07T16:24:51.819Z,63.60
2022-12-07T16:27:25.030Z,63.80
2022-12-07T16:29:55.656Z,63.80
2022-12-07T16:32:26.201Z,63.90
2022-12-07T16:34:55.352Z,63.90
2022-12-07T16:37:27.239Z,64.10
2022-12-07T16:39:58.289Z,64.00
2022-12-07T16:42:32.112Z,64.00
2022-12-07T16:45:03.629Z,63.70
2022-12-07T16:50:46.659Z,63.70
2022-12-07T16:53:19.489Z,63.90
2022-12-07T16:55:50.222Z,63.80
2022-12-07T16:58:19.642Z,64.60
2022-12-07T17:00:48.254Z,63.70
2022-12-07T17:03:20.739Z,64.00
2022-12-07T17:05:52.209Z,63.80
2022-12-07T17:08:23.023Z,63.80
2022-12-07T17:10:53.882Z,63.90
2022-12-07T17:13:51.410Z,64.10
2022-12-07T17:16:32.920Z,64.10
2022-12-07T17:19:03.073Z,64.30
2022-12-07T17:21:31.021Z,64.40
2022-12-07T17:24:01.650Z,64.30
2022-12-07T17:26:37.731Z,64.40
2022-12-07T17:29:14.728Z,64.30
2022-12-07T17:32:02.977Z,64.40
2022-12-07T17:34:31.535Z,64.10
2022-12-07T17:37:01.179Z,64.50
2022-12-07T17:39:33.038Z,64.60
2022-12-07T17:42:23.190Z,64.40
2022-12-07T17:44:59.255Z,64.40
2022-12-07T17:47:38.702Z,64.50
2022-12-07T17:50:07.737Z,64.70
2022-12-07T17:52:59.657Z,64.90
2022-12-07T17:55:27.011Z,64.90
2022-12-07T17:57:54.603Z,64.90
2022-12-07T18:00:22.322Z,64.90
2022-12-07T18:02:49.843Z,64.90
2022-12-07T18:05:17.404Z,64.50
2022-12-07T18:07:45.030Z,64.90
2022-12-07T18:10:13.572Z,64.90
2022-12-07T18:12:50.298Z,64.90
2022-12-07T18:15:23.043Z,64.90
2022-12-07T18:18:21.742Z,65.00
2022-12-07T18:20:49.675Z,64.60
2022-12-07T18:23:20.816Z,64.90
2022-12-07T18:25:50.917Z,65.00
2022-12-07T18:28:21.567Z,64.30
2022-12-07T18:31:14.151Z,64.60
2022-12-07T18:33:39.299Z,64.90
2022-12-07T18:36:07.886Z,64.80
2022-12-07T18:38:35.983Z,64.90
2022-12-07T18:41:04.250Z,65.10
2022-12-07T18:43:31.616Z,64.20
2022-12-07T18:45:58.983Z,64.20
2022-12-07T18:48:26.443Z,64.20
2022-12-07T18:51:02.789Z,64.10
2022-12-07T18:53:30.452Z,64.30
2022-12-07T18:56:05.934Z,64.50
2022-12-07T18:58:33.808Z,64.40
2022-12-07T19:01:01.686Z,64.20
2022-12-07T19:03:33.306Z,63.90
2022-12-07T19:06:06.918Z,64.20
2022-12-07T19:08:35.001Z,64.40
2022-12-07T19:11:24.185Z,64.20
2022-12-07T19:13:59.251Z,63.90
2022-12-07T19:16:27.934Z,64.30
2022-12-07T19:18:59.332Z,64.30
2022-12-07T19:21:27.563Z,64.10
2022-12-07T19:23:56.475Z,64.20
2022-12-07T19:26:25.260Z,64.40
2022-12-07T19:29:04.807Z,64.40
2022-12-07T19:31:52.572Z,64.40
2022-12-07T19:34:20.219Z,64.50
2022-12-07T19:36:54.217Z,64.70
2022-12-07T19:39:25.159Z,64.70
2022-12-07T19:42:18.736Z,64.40
2022-12-07T19:48:27.655Z,63.50
2022-12-07T19:50:55.419Z,63.80
2022-12-07T19:53:27.088Z,64.20
2022-12-07T19:55:58.452Z,64.20
2022-12-07T19:58:42.747Z,63.90
2022-12-07T20:01:13.089Z,64.10
2022-12-07T20:03:41.066Z,64.30
2022-12-07T20:12:39.425Z,64.30
2022-12-07T20:15:16.644Z,64.00
2022-12-07T20:17:52.504Z,64.20
2022-12-07T20:20:26.106Z,64.30
2022-12-07T20:22:56.309Z,64.40
2022-12-07T20:25:26.257Z,64.40
2022-12-07T20:27:55.383Z,64.40
2022-12-07T20:30:24.000Z,64.60
2022-12-07T20:32:53.785Z,64.60
2022-12-07T20:35:22.578Z,64.70
2022-12-07T20:37:52.658Z,64.70
2022-12-07T20:40:23.902Z,64.70
2022-12-07T20:43:51.851Z,64.70
2022-12-07T20:46:45.761Z,64.60
2022-12-07T20:49:25.502Z,64.70
2022-12-07T20:52:09.291Z,64.90
2022-12-07T20:54:45.935Z,64.70
2022-12-07T21:00:00.876Z,64.70
2022-12-07T21:02:53.301Z,64.40
2022-12-07T21:08:23.111Z,64.70
2022-12-07T21:10:51.037Z,64.80
2022-12-07T21:13:21.836Z,64.90
2022-12-07T21:15:50.397Z,64.90
2022-12-07T21:18:17.903Z,64.80
2022-12-07T21:20:45.271Z,64.70
2022-12-07T21:23:16.475Z,65.60
2022-12-07T21:25:43.818Z,65.50
2022-12-07T21:28:11.308Z,65.50
2022-12-07T21:31:11.512Z,65.30
2022-12-07T21:33:32.253Z,65.00
2022-12-07T21:36:00.130Z,65.20
2022-12-07T21:38:27.586Z,65.20
2022-12-07T21:41:06.788Z,65.40
2022-12-07T21:47:40.406Z,65.50
2022-12-07T21:53:18.571Z,65.50
2022-12-07T21:56:05.373Z,65.50
2022-12-07T21:59:28.918Z,65.50
2022-12-07T22:02:07.856Z,66.30
2022-12-07T22:05:05.374Z,65.60
2022-12-07T22:07:49.927Z,65.60
2022-12-07T22:10:32.265Z,65.80
2022-12-07T22:14:10.581Z,65.80
2022-12-07T22:17:00.005Z,66.00
2022-12-07T22:20:40.530Z,66.00
2022-12-07T22:23:47.105Z,66.00
2022-12-07T22:29:34.854Z,66.10
2022-12-07T22:32:49.576Z,66.00
2022-12-07T22:35:29.902Z,66.10
2022-12-07T22:37:57.337Z,66.10
2022-12-07T22:40:24.966Z,66.10
2022-12-07T22:42:59.776Z,66.10
2022-12-07T22:45:56.914Z,66.10
2022-12-07T22:51:37.701Z,66.30
2022-12-07T22:54:42.382Z,66.20
2022-12-07T22:57:19.557Z,66.10
2022-12-07T23:00:13.324Z,66.10
2022-12-07T23:05:59.519Z,66.00
2022-12-07T23:08:34.274Z,66.00
2022-12-07T23:11:59.696Z,66.00
2022-12-07T23:14:42.072Z,66.10
2022-12-07T23:20:17.358Z,66.30
2022-12-07T23:22:52.795Z,66.40
2022-12-07T23:25:25.758Z,66.60
2022-12-07T23:28:14.641Z,66.70
2022-12-07T23:30:47.690Z,66.60
2022-12-07T23:33:17.440Z,66.60
2022-12-07T23:35:49.537Z,66.60
2022-12-07T23:39:12.266Z,66.60
2022-12-07T23:42:11.243Z,66.60
2022-12-07T23:44:58.567Z,66.60
2022-12-07T23:47:27.085Z,66.80
2022-12-07T23:49:58.014Z,66.70
2022-12-07T23:52:31.998Z,66.70
2022-12-07T23:54:59.473Z,66.80
2022-12-07T23:57:27.870Z,66.90
